Time;durP1;ratioP1;P1;durP2;ratioP2;P2;SDS_P1;SDS_P2;PMS_P1;PMS_P2;Temp;Humidity;BMP_temperature;BMP_pressure;BME280_temperature;BME280_humidity;BME280_pressure;Samples;Min_cycle;Max_cycle;Signal;HPM_P1;HPM_P2
2022/11/12 00:00:16;;;;;;;15.57;12.52;;;;;;;5.38;77.55;103025.78;5070037;28;20127;-84
2022/11/12 00:02:41;;;;;;;17.30;13.73;;;;;;;5.55;78.00;103040.94;5090538;28;20449;-84
2022/11/12 00:05:06;;;;;;;23.70;16.15;;;;;;;5.55;78.33;103038.31;5091775;28;20055;-84
2022/11/12 00:07:32;;;;;;;15.30;12.98;;;;;;;5.56;78.25;103051.44;5090325;28;20024;-84
2022/11/12 00:09:57;;;;;;;14.65;12.02;;;;;;;5.49;78.10;103049.56;5069507;28;20061;-86
2022/11/12 00:12:22;;;;;;;23.55;16.98;;;;;;;5.51;79.73;103066.22;5087780;28;20398;-85
2022/11/12 00:14:48;;;;;;;18.67;14.10;;;;;;;5.47;79.32;103063.53;5072020;28;20127;-84
2022/11/12 00:17:13;;;;;;;13.57;10.48;;;;;;;5.48;78.18;103060.91;5074070;28;20034;-84
2022/11/12 00:19:38;;;;;;;24.20;14.57;;;;;;;5.51;79.30;103063.59;5075257;28;20027;-84
2022/11/12 00:22:03;;;;;;;18.75;13.60;;;;;;;5.45;79.46;103036.38;5092338;28;20031;-84
2022/11/12 00:24:29;;;;;;;18.35;13.27;;;;;;;5.64;80.65;103056.78;5070523;28;20035;-84
2022/11/12 00:26:54;;;;;;;25.08;14.98;;;;;;;5.66;81.08;103052.47;5084707;28;20028;-84
2022/11/12 00:29:19;;;;;;;17.98;13.02;;;;;;;5.77;80.77;103058.75;5090190;28;20024;-85
2022/11/12 00:31:45;;;;;;;17.63;12.55;;;;;;;5.76;80.49;103058.75;5091474;28;20035;-84
2022/11/12 00:34:10;;;;;;;18.33;12.80;;;;;;;5.79;80.02;103064.94;5089705;28;20032;-85
2022/11/12 00:36:35;;;;;;;17.52;12.85;;;;;;;5.84;81.28;103067.63;5091157;28;20123;-84
2022/11/12 00:39:01;;;;;;;20.67;13.50;;;;;;;5.86;80.90;103060.63;5075288;28;20439;-85
2022/11/12 00:41:26;;;;;;;19.38;13.18;;;;;;;5.85;80.45;103062.38;5091181;28;20035;-85
2022/11/12 00:43:51;;;;;;;18.42;12.65;;;;;;;5.88;81.04;103066.81;5074030;28;20501;-84
2022/11/12 00:46:17;;;;;;;20.27;13.00;;;;;;;5.85;80.07;103059.75;5072783;28;20081;-84
2022/11/12 00:48:42;;;;;;;15.00;11.30;;;;;;;5.87;80.01;103060.69;5093138;28;20032;-85
2022/11/12 00:51:08;;;;;;;21.70;12.82;;;;;;;5.79;80.34;103051.81;5079176;28;20027;-84
2022/11/12 00:53:33;;;;;;;17.42;12.20;;;;;;;5.79;79.94;103059.69;5092607;28;20031;-84
2022/11/12 00:56:00;;;;;;;20.67;12.18;;;;;;;5.80;80.31;103056.19;5090572;28;20032;-84
2022/11/12 00:58:29;;;;;;;17.23;12.95;;;;;;;5.84;80.72;103060.63;5077765;28;20130;-84
2022/11/12 01:00:54;;;;;;;18.27;12.05;;;;;;;5.81;80.12;103051.81;5087814;28;20024;-85
2022/11/12 01:03:19;;;;;;;17.63;12.02;;;;;;;5.77;79.61;103047.38;5091192;28;20501;-85
2022/11/12 01:05:44;;;;;;;16.38;11.70;;;;;;;5.77;80.42;103039.50;5091621;28;20103;-84
2022/11/12 01:08:10;;;;;;;15.15;12.15;;;;;;;5.74;79.59;103045.59;5089415;28;20036;-84
2022/11/12 01:10:35;;;;;;;18.73;12.52;;;;;;;5.75;80.29;103054.34;5071095;28;20024;-85
2022/11/12 01:13:00;;;;;;;16.38;11.35;;;;;;;5.75;80.18;103043.84;5074187;28;20031;-85
2022/11/12 01:15:26;;;;;;;16.40;11.25;;;;;;;5.70;79.58;103048.16;5071534;28;20049;-84
2022/11/12 01:17:51;;;;;;;19.52;11.77;;;;;;;5.69;80.07;103051.63;5091396;28;20515;-85
2022/11/12 01:20:16;;;;;;;15.73;10.98;;;;;;;5.66;78.83;103046.34;5089848;28;20036;-84
2022/11/12 01:22:42;;;;;;;14.25;10.43;;;;;;;5.60;78.28;103039.25;5090453;28;20080;-85
2022/11/12 01:25:07;;;;;;;13.38;10.38;;;;;;;5.50;79.00;103032.97;5066107;28;20031;-84
2022/11/12 01:27:33;;;;;;;15.65;10.15;;;;;;;5.39;78.51;103045.03;5087878;28;20128;-85
2022/11/12 01:29:58;;;;;;;15.20;10.52;;;;;;;5.29;79.17;103040.50;5090793;28;20107;-84
2022/11/12 01:32:23;;;;;;;12.45;10.48;;;;;;;5.26;78.93;103037.81;5075204;28;20494;-84
2022/11/12 01:34:49;;;;;;;15.50;9.63;;;;;;;5.19;78.56;103059.53;5073050;28;20071;-84
2022/11/12 01:37:15;;;;;;;11.73;9.48;;;;;;;5.17;78.83;103048.13;5091265;28;20034;-84
2022/11/12 01:39:40;;;;;;;15.55;11.30;;;;;;;5.37;79.29;103052.00;5088982;28;20035;-84
2022/11/12 01:42:05;;;;;;;12.43;9.07;;;;;;;5.18;77.95;103058.66;5087953;28;20039;-84
2022/11/12 01:44:33;;;;;;;12.43;9.63;;;;;;;4.96;78.76;103040.78;5069899;28;20062;-85
2022/11/12 01:47:07;;;;;;;13.20;8.52;;;;;;;5.00;79.07;103050.47;5083952;28;20553;-85
2022/11/12 01:49:43;;;;;;;12.38;9.13;;;;;;;4.94;79.50;103032.88;5085850;28;20036;-85
2022/11/12 01:52:31;;;;;;;13.65;9.23;;;;;;;5.04;80.06;103040.06;5091047;28;20032;-84
2022/11/12 01:55:02;;;;;;;11.73;8.52;;;;;;;4.88;77.72;103032.75;5086125;28;20548;-84
2022/11/12 01:57:34;;;;;;;9.98;7.88;;;;;;;4.78;78.74;103036.94;5071035;28;20024;-84
2022/11/12 02:00:05;;;;;;;10.73;7.78;;;;;;;4.73;77.93;103046.47;5087328;28;20463;-84
2022/11/12 02:02:32;;;;;;;12.48;10.25;;;;;;;4.74;80.64;103048.22;5071726;28;20024;-84
2022/11/12 02:04:58;;;;;;;15.95;10.48;;;;;;;4.77;81.27;103029.06;5071389;28;20096;-84
2022/11/12 02:07:24;;;;;;;14.32;9.32;;;;;;;4.77;80.01;103032.56;5082084;28;20036;-84
2022/11/12 02:09:51;;;;;;;13.52;9.40;;;;;;;4.85;78.56;103032.72;5085965;28;20012;-84
2022/11/12 02:15:02;;;;;;;14.98;9.02;;;;;;;4.88;78.55;103030.13;5084179;28;20043;-84
2022/11/12 02:17:27;;;;;;;12.05;8.98;;;;;;;4.90;77.38;103031.06;5068261;28;20411;-84
2022/11/12 02:19:53;;;;;;;11.30;8.85;;;;;;;4.86;77.22;103034.47;5065798;28;20027;-85
2022/11/12 02:22:18;;;;;;;10.65;7.93;;;;;;;4.79;77.60;103022.97;5062678;28;20028;-84
2022/11/12 02:24:43;;;;;;;13.68;9.30;;;;;;;4.90;78.94;103043.28;5069206;28;20056;-84
2022/11/12 02:27:10;;;;;;;14.48;9.25;;;;;;;4.82;78.94;103041.41;5086188;28;20036;-86
2022/11/12 02:29:44;;;;;;;13.77;8.90;;;;;;;4.75;78.65;103036.88;5088138;28;20575;-84
2022/11/12 02:32:10;;;;;;;11.93;8.75;;;;;;;4.66;78.73;103041.06;5086468;28;20047;-84
2022/11/12 02:34:36;;;;;;;13.88;7.82;;;;;;;4.58;78.34;103036.56;5083805;28;20063;-85
2022/11/12 02:37:01;;;;;;;13.05;9.38;;;;;;;4.59;78.48;103021.72;5090969;28;20034;-85
2022/11/12 02:39:26;;;;;;;11.77;9.30;;;;;;;4.48;78.73;103018.91;5071463;28;20031;-85
2022/11/12 02:41:51;;;;;;;15.10;9.85;;;;;;;4.64;78.69;103032.31;5085404;28;20027;-84
2022/11/12 02:44:17;;;;;;;12.10;9.25;;;;;;;4.66;79.50;103027.97;5088654;28;20085;-84
2022/11/12 02:46:42;;;;;;;12.95;9.48;;;;;;;4.61;79.65;103028.75;5084925;28;20040;-84
2022/11/12 02:49:07;;;;;;;10.73;8.23;;;;;;;4.66;79.08;103033.19;5087848;28;20020;-85
2022/11/12 02:51:33;;;;;;;13.52;9.73;;;;;;;4.67;80.26;103021.88;5066020;28;20391;-85
2022/11/12 02:53:58;;;;;;;13.05;9.35;;;;;;;4.58;80.83;103022.59;5069605;28;20104;-84
2022/11/12 02:56:23;;;;;;;11.93;9.18;;;;;;;4.55;79.98;103028.63;5087522;28;20038;-84
2022/11/12 02:58:48;;;;;;;13.25;8.90;;;;;;;4.51;80.11;103011.09;5089615;28;20031;-84
2022/11/12 03:01:14;;;;;;;13.85;9.27;;;;;;;4.51;79.18;103002.34;5064364;28;20403;-84
2022/11/12 03:03:39;;;;;;;15.90;8.95;;;;;;;4.64;80.18;103017.47;5068263;28;20028;-84
2022/11/12 03:06:05;;;;;;;16.35;9.18;;;;;;;4.60;79.62;103006.03;5068051;28;20024;-84
2022/11/12 03:08:30;;;;;;;18.40;10.35;;;;;;;4.65;80.34;103005.25;5088905;28;20031;-84
2022/11/12 03:10:55;;;;;;;14.70;9.80;;;;;;;4.67;80.56;103008.78;5065143;28;20081;-84
2022/11/12 03:13:21;;;;;;;14.23;9.25;;;;;;;4.67;80.23;103011.41;5064552;28;20078;-85
2022/11/12 03:15:46;;;;;;;12.25;8.90;;;;;;;4.69;80.54;103010.56;5067917;28;20510;-84
2022/11/12 03:18:12;;;;;;;10.57;8.02;;;;;;;4.68;79.83;103016.66;5087513;28;20387;-84
2022/11/12 03:20:37;;;;;;;16.45;10.60;;;;;;;4.70;81.08;103020.19;5068809;28;20026;-84
2022/11/12 03:23:05;;;;;;;11.65;8.55;;;;;;;4.65;79.91;103027.06;5087584;28;20024;-84
2022/11/12 03:25:30;;;;;;;10.75;8.45;;;;;;;4.57;79.11;103016.47;5081843;28;20407;-84
2022/11/12 03:27:58;;;;;;;12.80;8.70;;;;;;;4.59;79.50;103029.59;5086972;28;20016;-84
2022/11/12 03:30:26;;;;;;;13.00;9.20;;;;;;;4.61;80.06;103027.88;5085486;28;20043;-84
2022/11/12 03:32:52;;;;;;;12.27;7.85;;;;;;;4.59;79.46;103022.59;5083957;28;20094;-84
2022/11/12 03:35:17;;;;;;;11.27;7.47;;;;;;;4.55;79.21;103027.75;5087246;28;20110;-84
2022/11/12 03:37:42;;;;;;;12.07;7.70;;;;;;;4.53;79.02;103039.97;5089548;28;21234;-84
2022/11/12 03:40:08;;;;;;;13.32;9.02;;;;;;;4.37;80.79;103033.50;5086221;28;20027;-85
2022/11/12 03:42:33;;;;;;;12.80;8.65;;;;;;;4.35;80.57;103030.84;5065948;28;20056;-84
2022/11/12 03:44:58;;;;;;;12.20;8.27;;;;;;;4.35;80.53;103027.38;5065878;28;20028;-84
2022/11/12 03:47:24;;;;;;;15.73;10.50;;;;;;;4.42;82.08;103024.00;5067590;28;20227;-84
2022/11/12 03:49:49;;;;;;;8.50;7.60;;;;;;;4.47;80.59;103042.44;5069050;28;20047;-85
2022/11/12 03:52:14;;;;;;;11.75;7.95;;;;;;;4.40;80.58;103023.09;5061616;28;20028;-85
2022/11/12 03:54:40;;;;;;;13.40;8.48;;;;;;;4.40;81.07;103030.97;5085644;28;20017;-84
2022/11/12 03:57:05;;;;;;;15.90;10.18;;;;;;;4.50;82.09;103032.03;5085062;28;20498;-84
2022/11/12 03:59:30;;;;;;;13.15;8.88;;;;;;;4.52;81.89;103032.94;5065742;28;20052;-84
2022/11/12 04:01:55;;;;;;;14.65;9.18;;;;;;;4.54;80.92;103031.25;5083154;28;20471;-84
2022/11/12 04:04:21;;;;;;;12.45;8.60;;;;;;;4.56;80.77;103038.25;5064388;28;20028;-84
2022/11/12 04:09:30;;;;;;;11.05;7.63;;;;;;;4.47;80.02;103032.84;5085986;28;20661;-85
2022/11/12 04:13:26;;;;;;;12.35;7.90;;;;;;;4.39;79.56;103023.06;5070135;28;20126;-84
2022/11/12 04:14:40;;;;;;;11.50;8.38;;;;;;;4.35;79.27;103029.97;5082681;28;20031;-84
2022/11/12 04:22:33;;;;;;;12.05;7.85;;;;;;;4.26;79.95;103014.97;5088206;28;20051;-84
2022/11/12 04:27:42;;;;;;;12.05;8.27;;;;;;;4.22;79.63;103007.88;5081473;28;20541;-84
2022/11/12 04:30:14;;;;;;;12.15;8.55;;;;;;;4.16;79.97;102994.69;5086614;28;20056;-84
2022/11/12 04:32:47;;;;;;;11.63;8.20;;;;;;;4.18;80.31;103013.03;5090893;28;20020;-84
2022/11/12 04:35:12;;;;;;;;;;;;;;;4.23;79.28;103008.78;5087981;28;20020;-84
2022/11/12 04:37:44;;;;;;;12.35;8.80;;;;;;;4.06;81.47;102998.84;5073091;28;19923;-84
2022/11/12 04:45:56;;;;;;;15.15;8.90;;;;;;;4.19;79.73;102997.34;5086283;28;20124;-85
2022/11/12 04:48:23;;;;;;;10.63;8.10;;;;;;;4.20;80.05;103009.59;5072472;28;20056;-84
2022/11/12 04:50:52;;;;;;;11.07;8.02;;;;;;;4.16;80.51;103007.78;5085603;28;20028;-84
2022/11/12 04:53:18;;;;;;;10.23;7.50;;;;;;;4.12;79.58;103008.56;5088057;28;20032;-84
2022/11/12 04:55:43;;;;;;;8.40;6.90;;;;;;;4.05;80.07;102998.78;5090066;28;20110;-84
2022/11/12 04:58:09;;;;;;;13.05;7.65;;;;;;;3.93;79.05;102998.53;5068103;28;20039;-85
2022/11/12 05:00:34;;;;;;;9.60;7.15;;;;;;;3.84;78.91;102986.13;5086283;28;20025;-85
2022/11/12 05:02:59;;;;;;;14.73;8.93;;;;;;;3.77;78.96;102986.84;5083056;28;20093;-85
2022/11/12 05:05:25;;;;;;;10.07;7.80;;;;;;;3.73;79.66;102985.91;5080104;28;20545;-85
2022/11/12 05:07:50;;;;;;;12.95;8.40;;;;;;;3.70;79.83;102982.31;5075021;28;20028;-85
2022/11/12 05:10:16;;;;;;;13.68;8.70;;;;;;;3.70;80.32;102977.97;5087813;28;20043;-86
2022/11/12 05:12:42;;;;;;;14.88;9.05;;;;;;;3.78;80.76;102988.63;5091379;28;20071;-84
2022/11/12 05:15:08;;;;;;;13.15;8.80;;;;;;;3.67;81.15;102959.59;5086002;28;20028;-85
2022/11/12 05:17:33;;;;;;;10.57;7.97;;;;;;;3.82;80.68;102978.25;5086751;28;20027;-84
2022/11/12 05:19:58;;;;;;;11.13;7.97;;;;;;;3.80;79.64;102979.06;5090283;28;20073;-84
2022/11/12 05:22:24;;;;;;;10.75;7.28;;;;;;;3.84;79.41;102983.53;5085998;28;20583;-85
2022/11/12 05:24:49;;;;;;;9.82;7.70;;;;;;;3.85;78.79;102977.44;5083151;28;20080;-84
2022/11/12 05:27:18;;;;;;;9.52;6.93;;;;;;;3.82;78.38;102970.41;5079944;28;20024;-85
2022/11/12 05:29:43;;;;;;;15.77;8.68;;;;;;;3.78;79.15;102965.06;5069197;28;20020;-85
2022/11/12 05:32:12;;;;;;;11.38;7.43;;;;;;;3.84;78.74;102975.66;5083912;28;20505;-84
2022/11/12 05:34:37;;;;;;;11.13;7.38;;;;;;;3.81;78.76;102978.22;5063917;28;20123;-85
2022/11/12 05:37:05;;;;;;;11.80;7.20;;;;;;;3.73;79.32;102974.53;5071282;28;20550;-85
2022/11/12 05:39:30;;;;;;;10.57;7.05;;;;;;;3.63;79.73;102960.38;5056296;28;20055;-85
2022/11/12 05:41:55;;;;;;;12.18;7.90;;;;;;;3.73;79.69;102974.53;5072034;28;20063;-85
2022/11/12 05:44:20;;;;;;;11.93;7.72;;;;;;;3.73;79.91;102970.22;5065859;28;20110;-85
2022/11/12 05:46:46;;;;;;;13.55;8.45;;;;;;;3.78;81.44;102971.19;5066602;28;20051;-85
2022/11/12 05:49:12;;;;;;;10.68;8.77;;;;;;;3.84;80.10;102975.66;5071533;28;20089;-86
2022/11/12 05:51:37;;;;;;;11.70;8.02;;;;;;;3.85;80.32;102964.34;5066076;28;20024;-85
2022/11/12 05:54:03;;;;;;;12.65;8.82;;;;;;;3.86;80.72;102975.69;5088549;28;20039;-85
2022/11/12 05:56:28;;;;;;;13.45;8.05;;;;;;;3.75;80.02;102975.47;5089765;28;20035;-85
2022/11/12 05:58:54;;;;;;;9.73;7.03;;;;;;;3.79;79.68;102982.53;5091336;28;20023;-85
2022/11/12 06:01:19;;;;;;;11.52;8.48;;;;;;;3.86;80.11;102980.91;5084982;28;20027;-85
2022/11/12 06:03:44;;;;;;;9.75;7.38;;;;;;;3.84;80.05;102967.81;5071030;28;20032;-84
2022/11/12 06:06:10;;;;;;;8.88;6.63;;;;;;;3.96;79.43;102977.66;5067787;28;20026;-85
2022/11/12 06:08:35;;;;;;;9.32;6.95;;;;;;;4.02;78.71;102975.19;5088538;28;20024;-85
2022/11/12 06:11:00;;;;;;;8.15;6.78;;;;;;;3.93;78.98;102962.78;5085581;28;20035;-84
2022/11/12 06:13:26;;;;;;;10.98;6.72;;;;;;;3.99;78.98;102975.09;5071172;28;20034;-84
2022/11/12 06:15:53;;;;;;;8.95;6.55;;;;;;;3.80;79.19;102950.28;5061916;28;20467;-84
2022/11/12 06:18:18;;;;;;;10.70;7.45;;;;;;;3.86;78.61;102978.31;5068951;28;20129;-85
2022/11/12 06:20:44;;;;;;;9.75;6.85;;;;;;;3.86;78.50;102976.56;5090754;28;20110;-85
2022/11/12 06:23:09;;;;;;;11.13;7.80;;;;;;;3.82;78.29;102969.50;5068623;28;20062;-85
2022/11/12 06:25:34;;;;;;;11.40;7.88;;;;;;;3.83;78.37;102976.53;5062300;28;20028;-84
2022/11/12 06:27:59;;;;;;;11.70;6.90;;;;;;;3.81;78.77;102984.31;5084004;28;20039;-84
2022/11/12 06:30:25;;;;;;;15.60;7.75;;;;;;;3.80;79.41;102973.81;5062851;28;20567;-84
2022/11/12 06:32:51;;;;;;;13.88;9.40;;;;;;;3.87;81.52;102985.31;5071324;28;20036;-84
2022/11/12 06:35:17;;;;;;;12.98;8.75;;;;;;;3.89;80.81;102986.22;5080918;28;20043;-85
2022/11/12 06:37:47;;;;;;;11.60;7.53;;;;;;;3.83;79.79;102984.38;5065460;28;20028;-84
2022/11/12 06:40:13;;;;;;;10.60;7.70;;;;;;;3.81;81.03;102991.28;5088241;28;20095;-85
2022/11/12 06:42:38;;;;;;;13.48;9.40;;;;;;;3.76;81.89;102983.34;5089827;28;20547;-85
2022/11/12 06:45:04;;;;;;;12.80;8.30;;;;;;;3.76;81.31;102979.84;5068092;28;20102;-86
2022/11/12 06:47:29;;;;;;;12.55;8.95;;;;;;;3.79;81.75;102980.78;5084587;28;20135;-85
2022/11/12 06:49:55;;;;;;;20.55;9.18;;;;;;;3.86;81.72;102986.16;5070792;28;20035;-84
2022/11/12 06:52:20;;;;;;;12.55;8.77;;;;;;;3.89;81.48;102981.88;5069670;28;20050;-85
2022/11/12 06:54:45;;;;;;;14.45;8.80;;;;;;;3.88;81.02;102985.34;5068326;28;20028;-84
2022/11/12 06:57:10;;;;;;;11.93;8.13;;;;;;;3.88;81.15;102987.09;5088726;28;20028;-85
2022/11/12 06:59:36;;;;;;;13.30;8.50;;;;;;;3.89;81.40;102996.69;5089934;28;20051;-85
2022/11/12 07:02:01;;;;;;;10.00;7.53;;;;;;;3.78;80.44;102983.38;5085732;28;20034;-85
2022/11/12 07:04:26;;;;;;;9.95;7.20;;;;;;;3.81;80.96;103000.00;5066409;28;20417;-85
2022/11/12 07:06:52;;;;;;;12.07;9.05;;;;;;;3.86;82.19;102994.88;5064198;28;20038;-85
2022/11/12 07:09:17;;;;;;;15.52;8.25;;;;;;;3.87;81.57;102990.53;5086621;28;20499;-85
2022/11/12 07:11:42;;;;;;;15.65;9.20;;;;;;;3.90;81.83;102983.63;5086488;28;20052;-85
2022/11/12 07:14:08;;;;;;;12.18;8.15;;;;;;;4.05;82.50;102999.66;5084722;28;20012;-84
2022/11/12 07:16:34;;;;;;;12.35;8.18;;;;;;;4.15;82.67;103010.34;5083788;28;20024;-85
2022/11/12 07:18:59;;;;;;;14.15;8.82;;;;;;;4.16;82.37;102996.41;5065775;28;20028;-85
2022/11/12 07:21:25;;;;;;;14.00;8.75;;;;;;;4.27;82.07;103007.97;5086054;28;20073;-85
2022/11/12 07:23:50;;;;;;;13.15;8.50;;;;;;;4.31;82.30;103002.84;5070059;28;20020;-84
2022/11/12 07:26:24;;;;;;;13.52;9.30;;;;;;;4.32;82.11;103001.97;5067526;28;21491;-85
2022/11/12 07:28:51;;;;;;;13.00;7.70;;;;;;;4.25;82.30;102986.13;5081788;28;20024;-85
2022/11/12 07:31:18;;;;;;;15.07;8.40;;;;;;;4.34;83.08;103007.28;5069846;28;20543;-86
2022/11/12 07:33:44;;;;;;;13.65;9.30;;;;;;;4.47;82.79;103014.50;5090503;28;20062;-86
2022/11/12 07:36:19;;;;;;;12.48;8.82;;;;;;;4.46;82.72;103006.63;5059214;28;20024;-85
2022/11/12 07:38:45;;;;;;;14.60;9.60;;;;;;;4.56;82.78;102998.09;5087038;28;20028;-85
2022/11/12 07:41:13;;;;;;;15.15;9.82;;;;;;;4.79;82.65;103006.38;5079105;28;20467;-85
2022/11/12 07:43:40;;;;;;;17.85;9.95;;;;;;;4.76;82.49;103012.47;5090189;28;20506;-85
2022/11/12 07:46:14;;;;;;;13.25;9.45;;;;;;;4.79;82.53;103014.25;5068923;28;20173;-85
2022/11/12 07:48:40;;;;;;;15.73;10.50;;;;;;;4.92;82.28;103018.84;5087541;28;20112;-85
2022/11/12 07:51:10;;;;;;;15.00;9.02;;;;;;;5.00;82.40;103019.00;5069026;28;20101;-85
2022/11/12 07:53:36;;;;;;;14.98;9.73;;;;;;;5.01;82.73;103008.53;5089349;28;20055;-85
2022/11/12 07:56:03;;;;;;;14.15;9.95;;;;;;;5.35;82.22;103012.59;5063052;28;20592;-84
2022/11/12 07:58:30;;;;;;;14.15;9.95;;;;;;;5.71;81.99;103000.06;5089258;28;20510;-84
2022/11/12 08:00:56;;;;;;;19.33;11.93;;;;;;;6.32;81.42;103008.78;5087354;28;20080;-84
2022/11/12 08:03:21;;;;;;;20.70;11.07;;;;;;;6.81;79.49;103015.50;5068791;28;20119;-84
2022/11/12 08:05:47;;;;;;;17.42;11.15;;;;;;;7.12;78.87;103013.13;5070139;28;20399;-83
2022/11/12 08:08:12;;;;;;;15.63;10.77;;;;;;;7.29;78.59;103014.19;5094174;28;20024;-84
2022/11/12 08:10:38;;;;;;;15.43;9.57;;;;;;;7.39;77.08;103018.63;5093288;28;20536;-84
2022/11/12 08:13:03;;;;;;;12.82;9.35;;;;;;;7.73;77.08;103029.41;5072289;28;20039;-84
2022/11/12 08:15:30;;;;;;;13.75;10.07;;;;;;;8.05;75.95;103019.06;5089480;28;20021;-84
2022/11/12 08:17:55;;;;;;;13.70;8.95;;;;;;;8.22;74.82;103026.19;5075075;28;20455;-84
2022/11/12 08:20:20;;;;;;;14.05;10.20;;;;;;;8.22;74.53;103031.47;5091387;28;20107;-84
2022/11/12 08:22:47;;;;;;;16.33;10.40;;;;;;;8.62;75.42;103036.03;5091341;28;20101;-83
2022/11/12 08:25:12;;;;;;;14.57;9.90;;;;;;;9.00;72.40;103029.09;5087270;28;20073;-83
2022/11/12 08:27:37;;;;;;;13.20;9.55;;;;;;;9.81;71.39;103007.97;5089869;28;20027;-84
2022/11/12 08:30:04;;;;;;;13.63;9.45;;;;;;;10.87;67.76;103034.88;5069539;28;20506;-83
2022/11/12 08:32:29;;;;;;;12.98;9.63;;;;;;;11.33;65.46;103023.94;5090040;28;20471;-83
2022/11/12 08:34:55;;;;;;;15.85;9.20;;;;;;;11.69;64.16;103028.03;5088736;28;20119;-83
2022/11/12 08:37:20;;;;;;;15.88;10.02;;;;;;;11.67;62.85;103028.03;5086670;28;20038;-84
2022/11/12 08:39:45;;;;;;;16.75;10.60;;;;;;;11.25;64.92;103029.31;5091304;28;20016;-83
2022/11/12 08:42:10;;;;;;;15.35;11.20;;;;;;;10.91;65.92;103026.00;5089570;28;20026;-83
2022/11/12 08:44:36;;;;;;;15.05;10.60;;;;;;;10.69;66.40;103036.72;5068301;28;20016;-83
2022/11/12 08:47:01;;;;;;;18.00;10.43;;;;;;;10.54;67.40;103033.25;5069664;28;20055;-84
2022/11/12 08:49:27;;;;;;;17.20;10.70;;;;;;;10.64;68.04;103029.72;5061204;28;20078;-82
2022/11/12 08:51:53;;;;;;;15.45;11.18;;;;;;;10.62;67.03;103044.69;5070001;28;20028;-82
2022/11/12 08:54:19;;;;;;;16.52;10.93;;;;;;;10.22;67.88;103040.44;5066306;28;20123;-83
2022/11/12 08:56:44;;;;;;;16.10;10.50;;;;;;;10.28;68.28;103049.25;5082362;28;20142;-83
2022/11/12 08:59:09;;;;;;;17.55;10.98;;;;;;;10.48;68.20;103040.34;5070905;28;20039;-83
2022/11/12 09:01:35;;;;;;;14.93;9.40;;;;;;;11.55;66.30;103037.88;5085648;28;20027;-83
2022/11/12 09:04:00;;;;;;;13.57;9.40;;;;;;;13.14;61.31;103036.81;5072805;28;20107;-84
2022/11/12 09:06:25;;;;;;;10.63;8.27;;;;;;;14.48;58.29;103033.50;5080361;28;20032;-83
2022/11/12 09:08:50;;;;;;;13.00;9.07;;;;;;;15.94;53.05;103043.28;5068453;28;20024;-83
2022/11/12 09:11:16;;;;;;;10.65;7.85;;;;;;;17.03;49.82;103040.97;5086440;28;20128;-83
2022/11/12 09:13:42;;;;;;;10.07;7.53;;;;;;;18.30;48.26;103041.94;5068681;28;20028;-83
2022/11/12 09:16:08;;;;;;;11.18;8.15;;;;;;;19.28;45.26;103047.00;5067733;28;20016;-83
2022/11/12 09:18:34;;;;;;;9.93;7.55;;;;;;;19.93;42.77;103045.13;5069504;28;20043;-83
2022/11/12 09:21:01;;;;;;;23.23;7.88;;;;;;;19.99;42.87;103039.47;5069702;28;20452;-83
2022/11/12 09:23:27;;;;;;;9.55;7.07;;;;;;;19.86;42.38;103039.16;5083381;28;20442;-83
2022/11/12 09:25:54;;;;;;;10.15;7.80;;;;;;;20.25;40.93;103049.03;5084147;28;20024;-82
2022/11/12 09:28:19;;;;;;;11.27;7.35;;;;;;;20.69;40.18;103051.50;5091795;28;20444;-83
2022/11/12 09:30:49;;;;;;;10.15;7.07;;;;;;;21.30;41.72;103042.22;5093233;28;20040;-83
2022/11/12 09:33:17;;;;;;;10.57;7.30;;;;;;;21.72;38.11;103043.69;5095690;28;20039;-83
2022/11/12 09:35:44;;;;;;;10.23;7.28;;;;;;;21.52;37.52;103034.84;5090866;28;20500;-84
2022/11/12 09:38:10;;;;;;;8.27;7.28;;;;;;;21.36;37.93;103032.09;5073966;28;20032;-83
2022/11/12 09:40:57;;;;;;;9.10;7.10;;;;;;;21.41;41.25;103022.91;5072587;28;20038;-82
2022/11/12 09:43:33;;;;;;;9.35;7.15;;;;;;;20.75;40.23;103034.19;5089855;28;20042;-83
2022/11/12 09:46:05;;;;;;;9.23;7.00;;;;;;;20.53;41.14;103021.78;5055653;28;20027;-83
2022/11/12 09:48:47;;;;;;;8.82;6.80;;;;;;;20.76;42.19;103039.50;5072389;28;20090;-84
2022/11/12 09:51:29;;;;;;;8.30;7.10;;;;;;;21.20;40.62;103031.06;5072491;28;20111;-84
2022/11/12 09:53:57;;;;;;;11.27;8.02;;;;;;;21.20;37.86;103044.50;5081292;28;20107;-83
2022/11/12 09:56:24;;;;;;;8.93;7.05;;;;;;;21.20;38.06;103039.13;5084019;28;20039;-83
2022/11/12 09:58:51;;;;;;;9.95;7.43;;;;;;;21.25;38.64;103034.38;5087569;28;20024;-84
2022/11/12 10:01:53;;;;;;;10.05;7.75;;;;;;;21.71;41.57;103042.84;5066945;28;20047;-84
2022/11/12 10:04:45;;;;;;;8.45;7.07;;;;;;;22.56;40.89;103036.47;5073420;28;20285;-83
2022/11/12 10:07:37;;;;;;;8.73;7.60;;;;;;;23.09;36.24;103029.91;5082438;28;20024;-84
2022/11/12 10:10:43;;;;;;;8.07;7.20;;;;;;;24.20;37.63;103033.03;5069537;28;20030;-84
2022/11/12 10:13:17;;;;;;;8.32;7.47;;;;;;;25.30;33.60;103023.16;5085372;28;20467;-84
2022/11/12 10:18:53;;;;;;;9.05;7.43;;;;;;;26.11;33.34;103022.94;5087092;28;20039;-83
2022/11/12 10:22:01;;;;;;;8.20;7.07;;;;;;;26.66;34.33;103015.34;5088867;28;20212;-83
2022/11/12 10:24:32;;;;;;;8.77;7.30;;;;;;;26.67;30.21;103015.25;5040815;28;20402;-83
2022/11/12 10:26:58;;;;;;;10.32;7.55;;;;;;;27.21;29.61;103006.66;5086586;28;20038;-83
2022/11/12 10:29:35;;;;;;;8.57;7.10;;;;;;;27.40;30.07;103016.97;5084224;28;20036;-83
2022/11/12 10:32:01;;;;;;;7.93;7.13;;;;;;;27.07;27.82;103004.09;5085854;28;20047;-83
2022/11/12 10:34:28;;;;;;;10.70;7.55;;;;;;;27.45;28.35;103014.75;5069745;28;20032;-84
2022/11/12 10:37:04;;;;;;;8.60;7.63;;;;;;;27.33;30.07;103012.16;5083746;28;20039;-83
2022/11/12 10:39:42;;;;;;;8.52;7.55;;;;;;;27.41;32.29;103007.84;5059348;28;20040;-84
2022/11/12 10:42:14;;;;;;;10.70;7.57;;;;;;;26.52;31.30;103005.53;5069057;28;20372;-84
2022/11/12 10:44:42;;;;;;;9.53;8.07;;;;;;;26.73;30.38;103004.94;5086193;28;20479;-84
2022/11/12 10:47:25;;;;;;;10.00;8.30;;;;;;;27.14;30.53;102999.09;5086709;28;20409;-85
2022/11/12 10:50:13;;;;;;;10.95;7.75;;;;;;;27.25;32.74;102995.56;5087855;28;20031;-84
2022/11/12 10:52:38;;;;;;;9.63;7.38;;;;;;;26.49;29.84;103000.34;5070334;28;20506;-84
2022/11/12 10:55:16;;;;;;;9.80;7.25;;;;;;;26.31;30.44;102994.38;5088619;28;20032;-84
2022/11/12 10:57:42;;;;;;;9.55;7.57;;;;;;;26.59;29.85;102995.97;5087518;28;20039;-84
2022/11/12 11:00:16;;;;;;;12.70;8.52;;;;;;;26.62;30.86;103000.28;5090109;28;20016;-84
2022/11/12 11:02:49;;;;;;;10.68;8.90;;;;;;;26.13;30.48;102995.72;5080875;28;20027;-84
2022/11/12 11:05:35;;;;;;;9.80;8.38;;;;;;;26.54;31.96;102986.44;5086974;28;20030;-83
2022/11/12 11:08:01;;;;;;;11.35;8.10;;;;;;;26.94;29.32;102998.72;5088755;28;20027;-84
2022/11/12 11:10:35;;;;;;;12.25;8.77;;;;;;;26.44;29.05;102983.53;5089595;28;20063;-84
2022/11/12 11:13:21;;;;;;;9.93;8.07;;;;;;;27.29;31.53;102981.63;5087460;28;20105;-84
2022/11/12 11:16:02;;;;;;;9.75;8.02;;;;;;;27.39;30.72;102979.06;5078633;28;20031;-84
2022/11/12 11:18:29;;;;;;;9.85;7.97;;;;;;;27.65;28.16;102979.72;5087091;28;20101;-85
2022/11/12 11:21:12;;;;;;;9.02;7.75;;;;;;;27.61;29.06;102986.41;5084618;28;20012;-85
2022/11/12 11:24:15;;;;;;;8.60;7.70;;;;;;;27.49;29.58;102973.78;5083455;28;20117;-84
2022/11/12 11:27:02;;;;;;;10.93;8.30;;;;;;;26.88;29.69;102982.06;5036769;28;20496;-85
2022/11/12 11:29:33;;;;;;;8.63;7.68;;;;;;;27.11;28.53;102980.34;5084850;28;20024;-85
2022/11/12 11:32:27;;;;;;;9.80;7.97;;;;;;;27.24;29.88;102972.97;5066979;28;20085;-85
2022/11/12 11:34:58;;;;;;;9.60;7.90;;;;;;;26.77;27.60;102971.16;5087756;28;20289;-84
2022/11/12 11:37:29;;;;;;;10.20;7.97;;;;;;;26.08;29.62;102968.94;5081391;28;20075;-85
2022/11/12 11:40:23;;;;;;;10.38;8.27;;;;;;;26.37;30.65;102972.22;5084165;28;20077;-85
2022/11/12 11:43:09;;;;;;;10.23;8.60;;;;;;;26.20;31.14;102964.44;5085583;28;20032;-85
2022/11/12 11:45:53;;;;;;;10.55;8.90;;;;;;;26.50;28.90;102964.09;5083306;28;20030;-88
2022/11/12 11:48:30;;;;;;;9.32;8.32;;;;;;;27.09;29.42;102964.19;5085862;28;20051;-88